Oshoro Maru — JDVA — position and weather

sailwx.info

Track history (hours):
 
Tides and Currents Weather Stations Pressure Air Temp Water Temp Dewpoint Dewpoint Depression Visibility Wind Speed Wind Dir Waves Ship Positions

Oceanographic research ship Oshoro Maru (Japan)

Detailed information on ship capabilities available from University of Delaware's Ocean Information Center.

Last reported at 2017-Dec-09 21:07 UTC. Time now 2017-Dec-16 07:23 UTC.
Position N 34°26' E 138°43'.

Length 73 m; beam 13 m; draft 5 m.

Type: Other ship. MMSI: 431477000.

Date/timePositionNaut miles runAvg speedWind from/ knotsBaromVisibWave heightAir tempDewpointWater temp
2017-Dec-09 21:07N 34°26' E 138°43'0 1.8
2017-Dec-09 20:54N 34°26' E 138°43'1 1.9
2017-Dec-09 20:06N 34°26' E 138°41'1 2.1
2017-Dec-09 19:46N 34°26' E 138°40'1 2.1
2017-Dec-09 19:20N 34°26' E 138°39'1 2.0
2017-Dec-09 18:55N 34°26' E 138°38'1 2.0
2017-Dec-09 18:28N 34°26' E 138°37'13 7.4
2017-Dec-09 16:43N 34°31' E 138°51'2 8.4
2017-Dec-09 16:28N 34°32' E 138°54'4 8.2
2017-Dec-09 16:00N 34°34' E 138°58'6 9.2
2017-Dec-09 15:22N 34°38' E 139°03'4 9.5
2017-Dec-09 14:58N 34°40' E 139°06'5 8.7
2017-Dec-09 14:24N 34°43' E 139°11'4 9.1
2017-Dec-09 14:00N 34°46' E 139°14'5 9.7
2017-Dec-09 13:28N 34°49' E 139°19'4 9.3
2017-Dec-09 13:00N 34°52' E 139°23'6 9.7
2017-Dec-09 12:25N 34°56' E 139°28'410.6
2017-Dec-09 12:01N 34°59' E 139°32'5 9.6
2017-Dec-09 11:31N 35°02' E 139°37'510.8
2017-Dec-09 11:00N 35°05' E 139°42'611.2
2017-Dec-09 10:30N 35°10' E 139°45'611.0
2017-Dec-09 10:00N 35°16' E 139°46'511.0
2017-Dec-09 09:30N 35°20' E 139°43'510.2
2017-Dec-09 09:00N 35°25' E 139°44'611.1
2017-Dec-09 08:30N 35°28' E 139°50'611.1
2017-Dec-09 08:00N 35°31' E 139°55'611.4
2017-Dec-09 07:30N 35°34' E 140°01'4 8.5
2017-Dec-09 07:00N 35°36' E 140°06'0 0.4
2017-Dec-09 06:28N 35°36' E 140°06'0 0.0
2017-Dec-09 05:58N 35°36' E 140°06'0 0.0
2017-Dec-09 05:28N 35°36' E 140°06'0 0.0
2017-Dec-09 04:58N 35°36' E 140°06'0 0.0
2017-Dec-09 04:30N 35°36' E 140°06'0 0.0
2017-Dec-09 03:59N 35°36' E 140°06'0 0.0
2017-Dec-09 03:29N 35°36' E 140°06'0 0.0
2017-Dec-09 02:59N 35°36' E 140°06'0 0.0
2017-Dec-09 02:30N 35°36' E 140°06'0 0.0
2017-Dec-09 02:00N 35°36' E 140°06'0 0.0
2017-Dec-09 01:30N 35°36' E 140°06'0 0.0
2017-Dec-09 01:00N 35°36' E 140°06'1 2.7
2017-Dec-09 00:30N 35°35' E 140°05'4 8.3
2017-Dec-09 00:00N 35°33' E 140°00'4 8.2
2017-Dec-08 23:30N 35°31' E 139°56'510.1
2017-Dec-08 23:00N 35°28' E 139°51'511.0
2017-Dec-08 22:30N 35°24' E 139°46'611.4
2017-Dec-08 22:01N 35°19' E 139°44'611.1
2017-Dec-08 21:31N 35°14' E 139°47'611.1
2017-Dec-08 21:00N 35°08' E 139°47'3 6.0
2017-Dec-08 20:30N 35°05' E 139°47'2 4.6
2017-Dec-08 20:01N 35°03' E 139°46'2 4.9
2017-Dec-08 19:30N 35°01' E 139°45'4 8.0
2017-Dec-08 19:00N 34°58' E 139°42'510.2
2017-Dec-08 18:30N 34°53' E 139°40'5 9.6
2017-Dec-08 18:00N 34°49' E 139°37'610.9
2017-Dec-08 17:28N 34°43' E 139°34'610.9
2017-Dec-08 16:53N 34°38' E 139°31'4 9.5
2017-Dec-08 16:29N 34°34' E 139°29'10 9.2
2017-Dec-08 15:26N 34°25' E 139°24'  
2017-Dec-03 08:18N 34°35' E 139°35'12 9.9
2017-Dec-03 07:03N 34°47' E 139°39'511.3
2017-Dec-03 06:35N 34°52' E 139°40'111.4
2017-Dec-03 06:30N 34°53' E 139°40'611.3
2017-Dec-03 06:00N 34°59' E 139°42'611.2
2017-Dec-03 05:30N 35°04' E 139°43'611.4
2017-Dec-03 05:00N 35°10' E 139°45'510.9
2017-Dec-03 04:31N 35°15' E 139°46'510.8
2017-Dec-03 04:01N 35°20' E 139°43'510.7
2017-Dec-03 03:30N 35°25' E 139°42'4 8.3
2017-Dec-03 03:01N 35°28' E 139°39'1 1.0
2017-Dec-03 02:27N 35°29' E 139°39'0 0.0
2017-Dec-03 02:00N 35°29' E 139°39'0 0.0
2017-Dec-03 01:30N 35°29' E 139°39'0 0.0
2017-Dec-03 01:00N 35°29' E 139°39'0 0.0
2017-Dec-03 00:30N 35°29' E 139°39'0 0.0
2017-Dec-03 00:00N 35°29' E 139°39'0 0.0
2017-Dec-02 23:30N 35°29' E 139°39'0 0.0
2017-Dec-02 23:00N 35°29' E 139°39'0 0.0
2017-Dec-02 22:30N 35°29' E 139°39'0 0.0
2017-Dec-02 22:00N 35°29' E 139°39'0 0.0
2017-Dec-02 21:30N 35°29' E 139°39'0 0.0
2017-Dec-02 21:00N 35°29' E 139°39'0 0.0
2017-Dec-02 20:30N 35°29' E 139°39'0 0.0
2017-Dec-02 20:00N 35°29' E 139°39'0 0.0
2017-Dec-02 19:30N 35°29' E 139°39'0 0.0
2017-Dec-02 19:00N 35°29' E 139°39'0 0.0
2017-Dec-02 18:30N 35°29' E 139°39'0 0.0
2017-Dec-02 17:58N 35°29' E 139°39'0 0.0
2017-Dec-02 17:28N 35°29' E 139°39'0 0.0
2017-Dec-02 16:58N 35°29' E 139°39'0 0.0
2017-Dec-02 16:28N 35°29' E 139°39'0 0.0
2017-Dec-02 15:58N 35°29' E 139°39'0 0.0
2017-Dec-02 15:28N 35°29' E 139°39'0 0.0
2017-Dec-02 14:58N 35°29' E 139°39'0 0.0
2017-Dec-02 14:30N 35°29' E 139°39'0 0.0
2017-Dec-02 14:00N 35°29' E 139°39'0 0.0
2017-Dec-02 13:30N 35°29' E 139°39'0 0.0
2017-Dec-02 13:00N 35°29' E 139°39'0 0.0
2017-Dec-02 12:29N 35°29' E 139°39'0 0.0
2017-Dec-02 11:59N 35°29' E 139°39'0 0.0
2017-Dec-02 11:29N 35°29' E 139°39'0 0.0
2017-Dec-02 10:59N 35°29' E 139°39'0 0.0
2017-Dec-02 10:29N 35°29' E 139°39'0 0.0
2017-Dec-02 09:59N 35°29' E 139°39'0 0.0
2017-Dec-02 09:29N 35°29' E 139°39'0 0.0
2017-Dec-02 08:59N 35°29' E 139°39'0 0.0
2017-Dec-02 08:29N 35°29' E 139°39'0 0.0
2017-Dec-02 07:59N 35°29' E 139°39'0 0.0
2017-Dec-02 07:29N 35°29' E 139°39'0 0.0
2017-Dec-02 06:59N 35°29' E 139°39'0 0.0
2017-Dec-02 06:29N 35°29' E 139°39'0 0.0
2017-Dec-02 05:59N 35°29' E 139°39'0 0.0
2017-Dec-02 05:29N 35°29' E 139°39'0 0.0
2017-Dec-02 04:59N 35°29' E 139°39'0 0.0
2017-Dec-02 04:30N 35°29' E 139°39'0 0.0
2017-Dec-02 04:00N 35°29' E 139°39'0 0.0
2017-Dec-02 03:28N 35°29' E 139°39'0 0.0
2017-Dec-02 02:58N 35°29' E 139°39'0 0.0
2017-Dec-02 02:28N 35°29' E 139°39'0 0.0
2017-Dec-02 01:59N 35°29' E 139°39'0 0.0
2017-Dec-02 01:29N 35°29' E 139°39'0 0.0
2017-Dec-02 00:59N 35°29' E 139°39'0 0.0
2017-Dec-02 00:29N 35°29' E 139°39'0 0.0
2017-Dec-01 23:59N 35°29' E 139°39'0 0.0
2017-Dec-01 23:29N 35°29' E 139°39'0 0.0
2017-Dec-01 22:59N 35°29' E 139°39'0 0.0
2017-Dec-01 22:30N 35°29' E 139°39'0 0.0
2017-Dec-01 22:00N 35°29' E 139°39'0 0.0
2017-Dec-01 21:30N 35°29' E 139°39'0 0.0
2017-Dec-01 21:00N 35°29' E 139°39'0 0.0
2017-Dec-01 20:30N 35°29' E 139°39'0 0.0
2017-Dec-01 20:00N 35°29' E 139°39'0 0.0
2017-Dec-01 19:30N 35°29' E 139°39'0 0.0
2017-Dec-01 19:00N 35°29' E 139°39'0 0.0
2017-Dec-01 18:30N 35°29' E 139°39'0 0.0
2017-Dec-01 17:58N 35°29' E 139°39'0 0.0
2017-Dec-01 17:28N 35°29' E 139°39'0 0.0
2017-Dec-01 16:58N 35°29' E 139°39'0 0.0
2017-Dec-01 16:28N 35°29' E 139°39'0 0.0
2017-Dec-01 15:58N 35°29' E 139°39'0 0.0
2017-Dec-01 15:28N 35°29' E 139°39'0 0.0
2017-Dec-01 14:58N 35°29' E 139°39'0 0.0
2017-Dec-01 14:28N 35°29' E 139°39'0 0.0
2017-Dec-01 13:58N 35°29' E 139°39'0 0.0
2017-Dec-01 13:25N 35°29' E 139°39'0 0.0
2017-Dec-01 12:56N 35°29' E 139°39'0 0.0
2017-Dec-01 12:29N 35°29' E 139°39'0 0.0
2017-Dec-01 11:59N 35°29' E 139°39'0 0.0
2017-Dec-01 11:30N 35°29' E 139°39'0 0.0
2017-Dec-01 10:59N 35°29' E 139°39'0 0.0
2017-Dec-01 10:29N 35°29' E 139°39'0 0.0
2017-Dec-01 09:58N 35°29' E 139°39'0 0.0
2017-Dec-01 09:28N 35°29' E 139°39'0 0.0
2017-Dec-01 08:58N 35°29' E 139°39'0 0.0
2017-Dec-01 08:28N 35°29' E 139°39'0 0.0
2017-Dec-01 08:00N 35°29' E 139°39'0 0.0
2017-Dec-01 07:30N 35°29' E 139°39'0 0.0
2017-Dec-01 07:00N 35°29' E 139°39'0 0.0
2017-Dec-01 06:30N 35°29' E 139°39'0 0.0
2017-Dec-01 06:00N 35°29' E 139°39'0 0.0
2017-Dec-01 05:30N 35°29' E 139°39'0 0.0
2017-Dec-01 05:00N 35°29' E 139°39'0 0.0
2017-Dec-01 04:30N 35°29' E 139°39'0 0.0
2017-Dec-01 04:00N 35°29' E 139°39'0 0.0
2017-Dec-01 03:30N 35°29' E 139°39'0 0.0
2017-Dec-01 03:00N 35°29' E 139°39'0 0.0
2017-Dec-01 02:29N 35°29' E 139°39'0 0.1
2017-Dec-01 02:01N 35°29' E 139°39'2 3.8
2017-Dec-01 01:31N 35°27' E 139°41'4 7.6
2017-Dec-01 01:00N 35°24' E 139°43'4 9.0
2017-Dec-01 00:31N 35°20' E 139°43'510.4
2017-Dec-01 00:00N 35°15' E 139°47'510.3
2017-Nov-30 23:30N 35°10' E 139°47'510.8
2017-Nov-30 23:00N 35°05' E 139°45'4 8.8
2017-Nov-30 22:30N 35°01' E 139°43'3 5.8
2017-Nov-30 22:00N 34°59' E 139°40'3 6.1
2017-Nov-30 21:30N 34°57' E 139°37'4 6.9
2017-Nov-30 20:59N 34°56' E 139°33'3 7.0
2017-Nov-30 20:30N 34°54' E 139°30'3 6.7
2017-Nov-30 19:59N 34°52' E 139°26'3 6.7
2017-Nov-30 19:30N 34°50' E 139°23'5 8.7
2017-Nov-30 18:59N 34°48' E 139°18'5 9.7
2017-Nov-30 18:30N 34°45' E 139°14'510.3
2017-Nov-30 18:00N 34°42' E 139°09'510.1
2017-Nov-30 17:30N 34°38' E 139°04'510.1
2017-Nov-30 16:59N 34°34' E 139°00'5 9.8
2017-Nov-30 16:30N 34°32' E 138°55'510.1
2017-Nov-30 16:00N 34°30' E 138°49'510.2
2017-Nov-30 15:30N 34°30' E 138°43'5 9.9
2017-Nov-30 15:00N 34°30' E 138°37'6 9.9
2017-Nov-30 14:27N 34°30' E 138°30'510.0
2017-Nov-30 13:59N 34°30' E 138°25'610.1
2017-Nov-30 13:25N 34°30' E 138°18'410.5
2017-Nov-30 12:59N 34°30' E 138°12'  
Track history (hours):
 
Tides and Currents Weather Stations Pressure Air Temp Water Temp Dewpoint Dewpoint Depression Visibility Wind Speed Wind Dir Waves Ship Positions

Oceanographic research ship Oshoro Maru (Japan)

Detailed information on ship capabilities available from University of Delaware's Ocean Information Center.

Last reported at 2017-Dec-09 21:07 UTC. Time now 2017-Dec-16 07:23 UTC.
Position N 34°26' E 138°43'.

Length 73 m; beam 13 m; draft 5 m.

Type: Other ship. MMSI: 431477000.

Date/timePositionNaut miles runAvg speedWind from/ knotsBaromVisibWave heightAir tempDewpointWater temp
2017-Dec-09 21:07N 34°26' E 138°43'0 1.8
2017-Dec-09 20:54N 34°26' E 138°43'1 1.9
2017-Dec-09 20:06N 34°26' E 138°41'1 2.1
2017-Dec-09 19:46N 34°26' E 138°40'1 2.1
2017-Dec-09 19:20N 34°26' E 138°39'1 2.0
2017-Dec-09 18:55N 34°26' E 138°38'1 2.0
2017-Dec-09 18:28N 34°26' E 138°37'13 7.4
2017-Dec-09 16:43N 34°31' E 138°51'2 8.4
2017-Dec-09 16:28N 34°32' E 138°54'4 8.2
2017-Dec-09 16:00N 34°34' E 138°58'6 9.2
2017-Dec-09 15:22N 34°38' E 139°03'4 9.5
2017-Dec-09 14:58N 34°40' E 139°06'5 8.7
2017-Dec-09 14:24N 34°43' E 139°11'4 9.1
2017-Dec-09 14:00N 34°46' E 139°14'5 9.7
2017-Dec-09 13:28N 34°49' E 139°19'4 9.3
2017-Dec-09 13:00N 34°52' E 139°23'6 9.7
2017-Dec-09 12:25N 34°56' E 139°28'410.6
2017-Dec-09 12:01N 34°59' E 139°32'5 9.6
2017-Dec-09 11:31N 35°02' E 139°37'510.8
2017-Dec-09 11:00N 35°05' E 139°42'611.2
2017-Dec-09 10:30N 35°10' E 139°45'611.0
2017-Dec-09 10:00N 35°16' E 139°46'511.0
2017-Dec-09 09:30N 35°20' E 139°43'510.2
2017-Dec-09 09:00N 35°25' E 139°44'611.1
2017-Dec-09 08:30N 35°28' E 139°50'611.1
2017-Dec-09 08:00N 35°31' E 139°55'611.4
2017-Dec-09 07:30N 35°34' E 140°01'4 8.5
2017-Dec-09 07:00N 35°36' E 140°06'0 0.4
2017-Dec-09 06:28N 35°36' E 140°06'0 0.0
2017-Dec-09 05:58N 35°36' E 140°06'0 0.0
2017-Dec-09 05:28N 35°36' E 140°06'0 0.0
2017-Dec-09 04:58N 35°36' E 140°06'0 0.0
2017-Dec-09 04:30N 35°36' E 140°06'0 0.0
2017-Dec-09 03:59N 35°36' E 140°06'0 0.0
2017-Dec-09 03:29N 35°36' E 140°06'0 0.0
2017-Dec-09 02:59N 35°36' E 140°06'0 0.0
2017-Dec-09 02:30N 35°36' E 140°06'0 0.0
2017-Dec-09 02:00N 35°36' E 140°06'0 0.0
2017-Dec-09 01:30N 35°36' E 140°06'0 0.0
2017-Dec-09 01:00N 35°36' E 140°06'1 2.7
2017-Dec-09 00:30N 35°35' E 140°05'4 8.3
2017-Dec-09 00:00N 35°33' E 140°00'4 8.2
2017-Dec-08 23:30N 35°31' E 139°56'510.1
2017-Dec-08 23:00N 35°28' E 139°51'511.0
2017-Dec-08 22:30N 35°24' E 139°46'611.4
2017-Dec-08 22:01N 35°19' E 139°44'611.1
2017-Dec-08 21:31N 35°14' E 139°47'611.1
2017-Dec-08 21:00N 35°08' E 139°47'3 6.0
2017-Dec-08 20:30N 35°05' E 139°47'2 4.6
2017-Dec-08 20:01N 35°03' E 139°46'2 4.9
2017-Dec-08 19:30N 35°01' E 139°45'4 8.0
2017-Dec-08 19:00N 34°58' E 139°42'510.2
2017-Dec-08 18:30N 34°53' E 139°40'5 9.6
2017-Dec-08 18:00N 34°49' E 139°37'610.9
2017-Dec-08 17:28N 34°43' E 139°34'610.9
2017-Dec-08 16:53N 34°38' E 139°31'4 9.5
2017-Dec-08 16:29N 34°34' E 139°29'10 9.2
2017-Dec-08 15:26N 34°25' E 139°24'  
2017-Dec-03 08:18N 34°35' E 139°35'12 9.9
2017-Dec-03 07:03N 34°47' E 139°39'511.3
2017-Dec-03 06:35N 34°52' E 139°40'111.4
2017-Dec-03 06:30N 34°53' E 139°40'611.3
2017-Dec-03 06:00N 34°59' E 139°42'611.2
2017-Dec-03 05:30N 35°04' E 139°43'611.4
2017-Dec-03 05:00N 35°10' E 139°45'510.9
2017-Dec-03 04:31N 35°15' E 139°46'510.8
2017-Dec-03 04:01N 35°20' E 139°43'510.7
2017-Dec-03 03:30N 35°25' E 139°42'4 8.3
2017-Dec-03 03:01N 35°28' E 139°39'1 1.0
2017-Dec-03 02:27N 35°29' E 139°39'0 0.0
2017-Dec-03 02:00N 35°29' E 139°39'0 0.0
2017-Dec-03 01:30N 35°29' E 139°39'0 0.0
2017-Dec-03 01:00N 35°29' E 139°39'0 0.0
2017-Dec-03 00:30N 35°29' E 139°39'0 0.0
2017-Dec-03 00:00N 35°29' E 139°39'0 0.0
2017-Dec-02 23:30N 35°29' E 139°39'0 0.0
2017-Dec-02 23:00N 35°29' E 139°39'0 0.0
2017-Dec-02 22:30N 35°29' E 139°39'0 0.0
2017-Dec-02 22:00N 35°29' E 139°39'0 0.0
2017-Dec-02 21:30N 35°29' E 139°39'0 0.0
2017-Dec-02 21:00N 35°29' E 139°39'0 0.0
2017-Dec-02 20:30N 35°29' E 139°39'0 0.0
2017-Dec-02 20:00N 35°29' E 139°39'0 0.0
2017-Dec-02 19:30N 35°29' E 139°39'0 0.0
2017-Dec-02 19:00N 35°29' E 139°39'0 0.0
2017-Dec-02 18:30N 35°29' E 139°39'0 0.0
2017-Dec-02 17:58N 35°29' E 139°39'0 0.0
2017-Dec-02 17:28N 35°29' E 139°39'0 0.0
2017-Dec-02 16:58N 35°29' E 139°39'0 0.0
2017-Dec-02 16:28N 35°29' E 139°39'0 0.0
2017-Dec-02 15:58N 35°29' E 139°39'0 0.0
2017-Dec-02 15:28N 35°29' E 139°39'0 0.0
2017-Dec-02 14:58N 35°29' E 139°39'0 0.0
2017-Dec-02 14:30N 35°29' E 139°39'0 0.0
2017-Dec-02 14:00N 35°29' E 139°39'0 0.0
2017-Dec-02 13:30N 35°29' E 139°39'0 0.0
2017-Dec-02 13:00N 35°29' E 139°39'0 0.0
2017-Dec-02 12:29N 35°29' E 139°39'0 0.0
2017-Dec-02 11:59N 35°29' E 139°39'0 0.0
2017-Dec-02 11:29N 35°29' E 139°39'0 0.0
2017-Dec-02 10:59N 35°29' E 139°39'0 0.0
2017-Dec-02 10:29N 35°29' E 139°39'0 0.0
2017-Dec-02 09:59N 35°29' E 139°39'0 0.0
2017-Dec-02 09:29N 35°29' E 139°39'0 0.0
2017-Dec-02 08:59N 35°29' E 139°39'0 0.0
2017-Dec-02 08:29N 35°29' E 139°39'0 0.0
2017-Dec-02 07:59N 35°29' E 139°39'0 0.0
2017-Dec-02 07:29N 35°29' E 139°39'0 0.0
2017-Dec-02 06:59N 35°29' E 139°39'0 0.0
2017-Dec-02 06:29N 35°29' E 139°39'0 0.0
2017-Dec-02 05:59N 35°29' E 139°39'0 0.0
2017-Dec-02 05:29N 35°29' E 139°39'0 0.0
2017-Dec-02 04:59N 35°29' E 139°39'0 0.0
2017-Dec-02 04:30N 35°29' E 139°39'0 0.0
2017-Dec-02 04:00N 35°29' E 139°39'0 0.0
2017-Dec-02 03:28N 35°29' E 139°39'0 0.0
2017-Dec-02 02:58N 35°29' E 139°39'0 0.0
2017-Dec-02 02:28N 35°29' E 139°39'0 0.0
2017-Dec-02 01:59N 35°29' E 139°39'0 0.0
2017-Dec-02 01:29N 35°29' E 139°39'0 0.0
2017-Dec-02 00:59N 35°29' E 139°39'0 0.0
2017-Dec-02 00:29N 35°29' E 139°39'0 0.0
2017-Dec-01 23:59N 35°29' E 139°39'0 0.0
2017-Dec-01 23:29N 35°29' E 139°39'0 0.0
2017-Dec-01 22:59N 35°29' E 139°39'0 0.0
2017-Dec-01 22:30N 35°29' E 139°39'0 0.0
2017-Dec-01 22:00N 35°29' E 139°39'0 0.0
2017-Dec-01 21:30N 35°29' E 139°39'0 0.0
2017-Dec-01 21:00N 35°29' E 139°39'0 0.0
2017-Dec-01 20:30N 35°29' E 139°39'0 0.0
2017-Dec-01 20:00N 35°29' E 139°39'0 0.0
2017-Dec-01 19:30N 35°29' E 139°39'0 0.0
2017-Dec-01 19:00N 35°29' E 139°39'0 0.0
2017-Dec-01 18:30N 35°29' E 139°39'0 0.0
2017-Dec-01 17:58N 35°29' E 139°39'0 0.0
2017-Dec-01 17:28N 35°29' E 139°39'0 0.0
2017-Dec-01 16:58N 35°29' E 139°39'0 0.0
2017-Dec-01 16:28N 35°29' E 139°39'0 0.0
2017-Dec-01 15:58N 35°29' E 139°39'0 0.0
2017-Dec-01 15:28N 35°29' E 139°39'0 0.0
2017-Dec-01 14:58N 35°29' E 139°39'0 0.0
2017-Dec-01 14:28N 35°29' E 139°39'0 0.0
2017-Dec-01 13:58N 35°29' E 139°39'0 0.0
2017-Dec-01 13:25N 35°29' E 139°39'0 0.0
2017-Dec-01 12:56N 35°29' E 139°39'0 0.0
2017-Dec-01 12:29N 35°29' E 139°39'0 0.0
2017-Dec-01 11:59N 35°29' E 139°39'0 0.0
2017-Dec-01 11:30N 35°29' E 139°39'0 0.0
2017-Dec-01 10:59N 35°29' E 139°39'0 0.0
2017-Dec-01 10:29N 35°29' E 139°39'0 0.0
2017-Dec-01 09:58N 35°29' E 139°39'0 0.0
2017-Dec-01 09:28N 35°29' E 139°39'0 0.0
2017-Dec-01 08:58N 35°29' E 139°39'0 0.0
2017-Dec-01 08:28N 35°29' E 139°39'0 0.0
2017-Dec-01 08:00N 35°29' E 139°39'0 0.0
2017-Dec-01 07:30N 35°29' E 139°39'0 0.0
2017-Dec-01 07:00N 35°29' E 139°39'0 0.0
2017-Dec-01 06:30N 35°29' E 139°39'0 0.0
2017-Dec-01 06:00N 35°29' E 139°39'0 0.0
2017-Dec-01 05:30N 35°29' E 139°39'0 0.0
2017-Dec-01 05:00N 35°29' E 139°39'0 0.0
2017-Dec-01 04:30N 35°29' E 139°39'0 0.0
2017-Dec-01 04:00N 35°29' E 139°39'0 0.0
2017-Dec-01 03:30N 35°29' E 139°39'0 0.0
2017-Dec-01 03:00N 35°29' E 139°39'0 0.0
2017-Dec-01 02:29N 35°29' E 139°39'0 0.1
2017-Dec-01 02:01N 35°29' E 139°39'2 3.8
2017-Dec-01 01:31N 35°27' E 139°41'4 7.6
2017-Dec-01 01:00N 35°24' E 139°43'4 9.0
2017-Dec-01 00:31N 35°20' E 139°43'510.4
2017-Dec-01 00:00N 35°15' E 139°47'510.3
2017-Nov-30 23:30N 35°10' E 139°47'510.8
2017-Nov-30 23:00N 35°05' E 139°45'4 8.8
2017-Nov-30 22:30N 35°01' E 139°43'3 5.8
2017-Nov-30 22:00N 34°59' E 139°40'3 6.1
2017-Nov-30 21:30N 34°57' E 139°37'4 6.9
2017-Nov-30 20:59N 34°56' E 139°33'3 7.0
2017-Nov-30 20:30N 34°54' E 139°30'3 6.7
2017-Nov-30 19:59N 34°52' E 139°26'3 6.7
2017-Nov-30 19:30N 34°50' E 139°23'5 8.7
2017-Nov-30 18:59N 34°48' E 139°18'5 9.7
2017-Nov-30 18:30N 34°45' E 139°14'510.3
2017-Nov-30 18:00N 34°42' E 139°09'510.1
2017-Nov-30 17:30N 34°38' E 139°04'510.1
2017-Nov-30 16:59N 34°34' E 139°00'5 9.8
2017-Nov-30 16:30N 34°32' E 138°55'510.1
2017-Nov-30 16:00N 34°30' E 138°49'510.2
2017-Nov-30 15:30N 34°30' E 138°43'5 9.9
2017-Nov-30 15:00N 34°30' E 138°37'6 9.9
2017-Nov-30 14:27N 34°30' E 138°30'510.0
2017-Nov-30 13:59N 34°30' E 138°25'610.1
2017-Nov-30 13:25N 34°30' E 138°18'410.5
2017-Nov-30 12:59N 34°30' E 138°12'  

Dump ship's entire track history